sensor_id;sensor_type;location;lat;lon;timestamp;temperature;humidity
3912;DHT22;1971;51.778;10.330;2022-09-09T00:00:37;12.00;99.90
3912;DHT22;1971;51.778;10.330;2022-09-09T00:03:19;12.00;99.90
3912;DHT22;1971;51.778;10.330;2022-09-09T00:06:02;12.00;99.90
3912;DHT22;1971;51.778;10.330;2022-09-09T00:08:47;12.00;99.90
3912;DHT22;1971;51.778;10.330;2022-09-09T00:11:30;12.00;99.90
3912;DHT22;1971;51.778;10.330;2022-09-09T00:14:16;12.00;99.90
3912;DHT22;1971;51.778;10.330;2022-09-09T00:17:02;12.10;99.90
3912;DHT22;1971;51.778;10.330;2022-09-09T00:19:44;12.10;99.90
3912;DHT22;1971;51.778;10.330;2022-09-09T00:22:28;12.00;99.90
3912;DHT22;1971;51.778;10.330;2022-09-09T00:25:17;12.10;99.90
3912;DHT22;1971;51.778;10.330;2022-09-09T00:27:56;12.10;99.90
3912;DHT22;1971;51.778;10.330;2022-09-09T00:30:34;12.10;99.90
3912;DHT22;1971;51.778;10.330;2022-09-09T00:33:20;12.20;99.90
3912;DHT22;1971;51.778;10.330;2022-09-09T00:35:58;12.20;99.90
3912;DHT22;1971;51.778;10.330;2022-09-09T00:38:45;12.30;99.90
3912;DHT22;1971;51.778;10.330;2022-09-09T00:41:29;12.30;99.90
3912;DHT22;1971;51.778;10.330;2022-09-09T00:44:18;12.20;99.90
3912;DHT22;1971;51.778;10.330;2022-09-09T00:47:09;12.20;99.90
3912;DHT22;1971;51.778;10.330;2022-09-09T00:49:59;12.20;99.90
3912;DHT22;1971;51.778;10.330;2022-09-09T00:52:46;12.30;99.90
3912;DHT22;1971;51.778;10.330;2022-09-09T00:55:31;12.50;99.90
3912;DHT22;1971;51.778;10.330;2022-09-09T00:58:09;12.50;99.90
3912;DHT22;1971;51.778;10.330;2022-09-09T01:00:51;12.60;99.90
3912;DHT22;1971;51.778;10.330;2022-09-09T01:03:35;12.60;99.90
3912;DHT22;1971;51.778;10.330;2022-09-09T01:06:16;12.60;99.90
3912;DHT22;1971;51.778;10.330;2022-09-09T01:09:10;12.60;99.90
3912;DHT22;1971;51.778;10.330;2022-09-09T01:11:55;12.60;99.90
3912;DHT22;1971;51.778;10.330;2022-09-09T01:14:40;12.50;99.90
3912;DHT22;1971;51.778;10.330;2022-09-09T01:17:21;12.60;99.90
3912;DHT22;1971;51.778;10.330;2022-09-09T01:20:13;12.60;99.90
3912;DHT22;1971;51.778;10.330;2022-09-09T01:26:24;12.80;99.90
3912;DHT22;1971;51.778;10.330;2022-09-09T01:29:02;12.90;99.90
3912;DHT22;1971;51.778;10.330;2022-09-09T01:31:52;12.90;99.90
3912;DHT22;1971;51.778;10.330;2022-09-09T01:34:33;12.90;99.90
3912;DHT22;1971;51.778;10.330;2022-09-09T01:37:12;12.90;99.90
3912;DHT22;1971;51.778;10.330;2022-09-09T01:39:54;12.90;99.90
3912;DHT22;1971;51.778;10.330;2022-09-09T01:42:33;12.90;99.90
3912;DHT22;1971;51.778;10.330;2022-09-09T01:45:15;12.80;99.90
3912;DHT22;1971;51.778;10.330;2022-09-09T01:47:52;12.80;99.90
3912;DHT22;1971;51.778;10.330;2022-09-09T01:50:30;12.70;99.90
3912;DHT22;1971;51.778;10.330;2022-09-09T01:53:12;12.60;99.90
3912;DHT22;1971;51.778;10.330;2022-09-09T01:56:00;12.50;99.90
3912;DHT22;1971;51.778;10.330;2022-09-09T01:58:57;12.50;99.90
3912;DHT22;1971;51.778;10.330;2022-09-09T02:01:46;12.50;99.90
3912;DHT22;1971;51.778;10.330;2022-09-09T02:04:36;12.50;99.90
3912;DHT22;1971;51.778;10.330;2022-09-09T02:07:36;12.60;99.90
3912;DHT22;1971;51.778;10.330;2022-09-09T02:10:19;12.50;99.90
3912;DHT22;1971;51.778;10.330;2022-09-09T02:13:04;12.60;99.90
3912;DHT22;1971;51.778;10.330;2022-09-09T02:15:51;12.60;99.90
3912;DHT22;1971;51.778;10.330;2022-09-09T02:18:32;12.60;99.90
3912;DHT22;1971;51.778;10.330;2022-09-09T02:21:11;12.60;99.90
3912;DHT22;1971;51.778;10.330;2022-09-09T02:23:56;12.60;99.90
3912;DHT22;1971;51.778;10.330;2022-09-09T02:26:34;12.50;99.90
3912;DHT22;1971;51.778;10.330;2022-09-09T02:29:21;12.60;99.90
3912;DHT22;1971;51.778;10.330;2022-09-09T02:32:04;12.70;99.90
3912;DHT22;1971;51.778;10.330;2022-09-09T02:34:45;12.80;99.90
3912;DHT22;1971;51.778;10.330;2022-09-09T02:37:26;12.60;99.90
3912;DHT22;1971;51.778;10.330;2022-09-09T02:40:11;12.60;99.90
3912;DHT22;1971;51.778;10.330;2022-09-09T02:42:50;12.60;99.90
3912;DHT22;1971;51.778;10.330;2022-09-09T02:45:33;12.70;99.90
3912;DHT22;1971;51.778;10.330;2022-09-09T02:48:28;12.70;99.90
3912;DHT22;1971;51.778;10.330;2022-09-09T02:51:09;12.70;99.90
3912;DHT22;1971;51.778;10.330;2022-09-09T02:53:56;12.70;99.90
3912;DHT22;1971;51.778;10.330;2022-09-09T02:56:40;12.70;99.90
3912;DHT22;1971;51.778;10.330;2022-09-09T02:59:25;12.60;99.90
3912;DHT22;1971;51.778;10.330;2022-09-09T03:02:02;12.70;99.90
3912;DHT22;1971;51.778;10.330;2022-09-09T03:04:47;12.60;99.90
3912;DHT22;1971;51.778;10.330;2022-09-09T03:07:24;12.70;99.90
3912;DHT22;1971;51.778;10.330;2022-09-09T03:10:07;12.70;99.90
3912;DHT22;1971;51.778;10.330;2022-09-09T03:12:44;12.60;99.90
3912;DHT22;1971;51.778;10.330;2022-09-09T03:15:26;12.60;99.90
3912;DHT22;1971;51.778;10.330;2022-09-09T03:18:04;12.60;99.90
3912;DHT22;1971;51.778;10.330;2022-09-09T03:20:45;12.50;99.90
3912;DHT22;1971;51.778;10.330;2022-09-09T03:23:28;12.50;99.90
3912;DHT22;1971;51.778;10.330;2022-09-09T03:26:08;12.50;99.90
3912;DHT22;1971;51.778;10.330;2022-09-09T03:28:50;12.40;99.90
3912;DHT22;1971;51.778;10.330;2022-09-09T03:31:27;12.40;99.90
3912;DHT22;1971;51.778;10.330;2022-09-09T03:34:10;12.40;99.90
3912;DHT22;1971;51.778;10.330;2022-09-09T03:36:50;12.40;99.90
3912;DHT22;1971;51.778;10.330;2022-09-09T03:39:32;12.50;99.90
3912;DHT22;1971;51.778;10.330;2022-09-09T03:42:08;12.60;99.90
3912;DHT22;1971;51.778;10.330;2022-09-09T03:44:51;12.60;99.90
3912;DHT22;1971;51.778;10.330;2022-09-09T03:47:28;12.60;99.90
3912;DHT22;1971;51.778;10.330;2022-09-09T03:50:05;12.60;99.90
3912;DHT22;1971;51.778;10.330;2022-09-09T03:52:52;12.60;99.90
3912;DHT22;1971;51.778;10.330;2022-09-09T03:55:28;12.60;99.90
3912;DHT22;1971;51.778;10.330;2022-09-09T03:58:10;12.60;99.90
3912;DHT22;1971;51.778;10.330;2022-09-09T04:00:53;12.50;99.90
3912;DHT22;1971;51.778;10.330;2022-09-09T04:03:26;12.50;99.90
3912;DHT22;1971;51.778;10.330;2022-09-09T04:06:09;12.50;99.90
3912;DHT22;1971;51.778;10.330;2022-09-09T04:08:49;12.50;99.90
3912;DHT22;1971;51.778;10.330;2022-09-09T04:11:25;12.60;99.90
3912;DHT22;1971;51.778;10.330;2022-09-09T04:14:07;12.50;99.90
3912;DHT22;1971;51.778;10.330;2022-09-09T04:16:43;12.60;99.90
3912;DHT22;1971;51.778;10.330;2022-09-09T04:19:25;12.70;99.90
3912;DHT22;1971;51.778;10.330;2022-09-09T04:22:01;12.70;99.90
3912;DHT22;1971;51.778;10.330;2022-09-09T04:24:46;12.70;99.90
3912;DHT22;1971;51.778;10.330;2022-09-09T04:27:22;12.70;99.90
3912;DHT22;1971;51.778;10.330;2022-09-09T04:30:05;12.70;99.90
3912;DHT22;1971;51.778;10.330;2022-09-09T04:32:41;12.70;99.90
3912;DHT22;1971;51.778;10.330;2022-09-09T04:35:23;12.70;99.90
3912;DHT22;1971;51.778;10.330;2022-09-09T04:38:00;12.70;99.90
3912;DHT22;1971;51.778;10.330;2022-09-09T04:40:46;12.70;99.90
3912;DHT22;1971;51.778;10.330;2022-09-09T04:43:23;12.60;99.90
3912;DHT22;1971;51.778;10.330;2022-09-09T04:46:05;12.60;99.90
3912;DHT22;1971;51.778;10.330;2022-09-09T04:48:41;12.60;99.90
3912;DHT22;1971;51.778;10.330;2022-09-09T04:51:18;12.60;99.90
3912;DHT22;1971;51.778;10.330;2022-09-09T04:54:00;12.50;99.90
3912;DHT22;1971;51.778;10.330;2022-09-09T04:56:39;12.50;99.90
3912;DHT22;1971;51.778;10.330;2022-09-09T04:59:22;12.40;99.90
3912;DHT22;1971;51.778;10.330;2022-09-09T05:01:58;12.40;99.90
3912;DHT22;1971;51.778;10.330;2022-09-09T05:04:42;12.50;99.90
3912;DHT22;1971;51.778;10.330;2022-09-09T05:07:18;12.60;99.90
3912;DHT22;1971;51.778;10.330;2022-09-09T05:10:00;12.60;99.90
3912;DHT22;1971;51.778;10.330;2022-09-09T05:12:40;12.70;99.90
3912;DHT22;1971;51.778;10.330;2022-09-09T05:15:22;12.70;99.90
3912;DHT22;1971;51.778;10.330;2022-09-09T05:17:58;12.80;99.90
3912;DHT22;1971;51.778;10.330;2022-09-09T05:20:41;12.80;99.90
3912;DHT22;1971;51.778;10.330;2022-09-09T05:23:17;12.80;99.90
3912;DHT22;1971;51.778;10.330;2022-09-09T05:26:00;12.90;99.90
3912;DHT22;1971;51.778;10.330;2022-09-09T05:28:40;12.90;99.90
3912;DHT22;1971;51.778;10.330;2022-09-09T05:31:17;12.80;99.90
3912;DHT22;1971;51.778;10.330;2022-09-09T05:34:00;12.80;99.90
3912;DHT22;1971;51.778;10.330;2022-09-09T05:36:36;12.70;99.90
3912;DHT22;1971;51.778;10.330;2022-09-09T05:39:18;12.80;99.90
3912;DHT22;1971;51.778;10.330;2022-09-09T05:41:54;12.90;99.90
3912;DHT22;1971;51.778;10.330;2022-09-09T05:44:39;13.00;99.90
3912;DHT22;1971;51.778;10.330;2022-09-09T05:47:16;13.00;99.90
3912;DHT22;1971;51.778;10.330;2022-09-09T05:49:58;13.10;99.90
3912;DHT22;1971;51.778;10.330;2022-09-09T05:52:34;13.10;99.90
3912;DHT22;1971;51.778;10.330;2022-09-09T05:55:16;13.10;99.90
3912;DHT22;1971;51.778;10.330;2022-09-09T05:57:52;13.10;99.90
3912;DHT22;1971;51.778;10.330;2022-09-09T06:00:37;13.10;99.90
3912;DHT22;1971;51.778;10.330;2022-09-09T06:03:13;13.20;99.90
3912;DHT22;1971;51.778;10.330;2022-09-09T06:05:59;13.20;99.90
3912;DHT22;1971;51.778;10.330;2022-09-09T06:08:40;13.20;99.90
3912;DHT22;1971;51.778;10.330;2022-09-09T06:11:19;13.20;99.90
3912;DHT22;1971;51.778;10.330;2022-09-09T06:14:01;13.20;99.90
3912;DHT22;1971;51.778;10.330;2022-09-09T06:16:40;13.20;99.90
3912;DHT22;1971;51.778;10.330;2022-09-09T06:19:22;13.30;99.90
3912;DHT22;1971;51.778;10.330;2022-09-09T06:21:59;13.50;99.90
3912;DHT22;1971;51.778;10.330;2022-09-09T06:24:41;13.40;99.90
3912;DHT22;1971;51.778;10.330;2022-09-09T06:27:17;13.50;99.90
3912;DHT22;1971;51.778;10.330;2022-09-09T06:29:59;13.50;99.90
3912;DHT22;1971;51.778;10.330;2022-09-09T06:32:39;13.50;99.90
3912;DHT22;1971;51.778;10.330;2022-09-09T06:35:21;13.40;99.90
3912;DHT22;1971;51.778;10.330;2022-09-09T06:37:57;13.40;99.90
3912;DHT22;1971;51.778;10.330;2022-09-09T06:40:39;13.40;99.90
3912;DHT22;1971;51.778;10.330;2022-09-09T06:43:16;13.40;99.90
3912;DHT22;1971;51.778;10.330;2022-09-09T06:46:01;13.30;99.90
3912;DHT22;1971;51.778;10.330;2022-09-09T06:48:42;13.30;99.90
3912;DHT22;1971;51.778;10.330;2022-09-09T06:51:26;13.30;99.90
3912;DHT22;1971;51.778;10.330;2022-09-09T06:54:03;13.20;99.90
3912;DHT22;1971;51.778;10.330;2022-09-09T06:56:42;13.20;99.90
3912;DHT22;1971;51.778;10.330;2022-09-09T06:59:24;13.20;99.90
3912;DHT22;1971;51.778;10.330;2022-09-09T07:02:01;13.20;99.90
3912;DHT22;1971;51.778;10.330;2022-09-09T07:04:47;13.30;99.90
3912;DHT22;1971;51.778;10.330;2022-09-09T07:07:24;13.30;99.90
3912;DHT22;1971;51.778;10.330;2022-09-09T07:10:00;13.30;99.90
3912;DHT22;1971;51.778;10.330;2022-09-09T07:12:42;13.30;99.90
3912;DHT22;1971;51.778;10.330;2022-09-09T07:15:19;13.40;99.90
3912;DHT22;1971;51.778;10.330;2022-09-09T07:18:01;13.40;99.90
3912;DHT22;1971;51.778;10.330;2022-09-09T07:20:41;13.40;99.90
3912;DHT22;1971;51.778;10.330;2022-09-09T07:23:17;13.40;99.90
3912;DHT22;1971;51.778;10.330;2022-09-09T07:25:59;13.50;99.90
3912;DHT22;1971;51.778;10.330;2022-09-09T07:28:37;13.60;99.90
3912;DHT22;1971;51.778;10.330;2022-09-09T07:31:21;13.70;99.90
3912;DHT22;1971;51.778;10.330;2022-09-09T07:33:59;13.70;99.90
3912;DHT22;1971;51.778;10.330;2022-09-09T07:36:39;13.70;99.90
3912;DHT22;1971;51.778;10.330;2022-09-09T07:39:21;13.60;99.90
3912;DHT22;1971;51.778;10.330;2022-09-09T07:41:57;13.60;99.90
3912;DHT22;1971;51.778;10.330;2022-09-09T07:44:39;13.70;99.90
3912;DHT22;1971;51.778;10.330;2022-09-09T07:47:15;13.60;99.90
3912;DHT22;1971;51.778;10.330;2022-09-09T07:49:57;13.50;99.90
3912;DHT22;1971;51.778;10.330;2022-09-09T07:52:36;13.60;99.90
3912;DHT22;1971;51.778;10.330;2022-09-09T07:55:18;13.70;99.90
3912;DHT22;1971;51.778;10.330;2022-09-09T07:57:55;13.70;99.90
3912;DHT22;1971;51.778;10.330;2022-09-09T08:00:37;13.70;99.90
3912;DHT22;1971;51.778;10.330;2022-09-09T08:03:17;13.70;99.90
3912;DHT22;1971;51.778;10.330;2022-09-09T08:06:01;13.80;99.90
3912;DHT22;1971;51.778;10.330;2022-09-09T08:08:40;13.80;99.90
3912;DHT22;1971;51.778;10.330;2022-09-09T08:11:27;13.80;99.90
3912;DHT22;1971;51.778;10.330;2022-09-09T08:14:11;13.80;99.90
3912;DHT22;1971;51.778;10.330;2022-09-09T08:16:49;14.00;99.90
3912;DHT22;1971;51.778;10.330;2022-09-09T08:19:32;14.20;99.90
3912;DHT22;1971;51.778;10.330;2022-09-09T08:22:09;14.30;99.90
3912;DHT22;1971;51.778;10.330;2022-09-09T08:24:54;14.40;99.90
3912;DHT22;1971;51.778;10.330;2022-09-09T08:27:30;14.70;99.90
3912;DHT22;1971;51.778;10.330;2022-09-09T08:30:13;15.10;99.90
3912;DHT22;1971;51.778;10.330;2022-09-09T08:32:49;15.20;99.90
3912;DHT22;1971;51.778;10.330;2022-09-09T08:35:31;15.20;99.90
3912;DHT22;1971;51.778;10.330;2022-09-09T08:38:07;15.00;99.90
3912;DHT22;1971;51.778;10.330;2022-09-09T08:40:53;14.90;99.90
3912;DHT22;1971;51.778;10.330;2022-09-09T08:43:34;15.20;99.90
3912;DHT22;1971;51.778;10.330;2022-09-09T08:46:22;15.10;99.90
3912;DHT22;1971;51.778;10.330;2022-09-09T08:49:10;15.00;99.90
3912;DHT22;1971;51.778;10.330;2022-09-09T08:51:51;14.90;99.90
3912;DHT22;1971;51.778;10.330;2022-09-09T08:54:34;14.80;99.60
3912;DHT22;1971;51.778;10.330;2022-09-09T08:57:26;14.80;99.90
3912;DHT22;1971;51.778;10.330;2022-09-09T09:00:11;14.80;99.90
3912;DHT22;1971;51.778;10.330;2022-09-09T09:02:54;14.80;99.90
3912;DHT22;1971;51.778;10.330;2022-09-09T09:05:46;14.80;99.90
3912;DHT22;1971;51.778;10.330;2022-09-09T09:08:27;14.90;99.90
3912;DHT22;1971;51.778;10.330;2022-09-09T09:11:06;15.00;99.90
3912;DHT22;1971;51.778;10.330;2022-09-09T09:13:48;15.20;99.90
3912;DHT22;1971;51.778;10.330;2022-09-09T09:16:32;15.20;99.00
3912;DHT22;1971;51.778;10.330;2022-09-09T09:19:13;15.40;94.40
3912;DHT22;1971;51.778;10.330;2022-09-09T09:22:01;15.60;90.50
3912;DHT22;1971;51.778;10.330;2022-09-09T09:24:45;15.50;65.90
3912;DHT22;1971;51.778;10.330;2022-09-09T09:27:31;15.50;61.10
3912;DHT22;1971;51.778;10.330;2022-09-09T09:30:19;15.40;57.60
3912;DHT22;1971;51.778;10.330;2022-09-09T09:33:06;15.70;60.00
3912;DHT22;1971;51.778;10.330;2022-09-09T09:35:51;16.00;48.30
3912;DHT22;1971;51.778;10.330;2022-09-09T09:38:28;16.00;15.00
3912;DHT22;1971;51.778;10.330;2022-09-09T09:41:14;15.80;2.70
3912;DHT22;1971;51.778;10.330;2022-09-09T09:43:58;15.70;11.70
3912;DHT22;1971;51.778;10.330;2022-09-09T09:46:38;15.50;7.20
3912;DHT22;1971;51.778;10.330;2022-09-09T09:49:20;15.40;1.00
3912;DHT22;1971;51.778;10.330;2022-09-09T09:52:00;15.40;1.00
3912;DHT22;1971;51.778;10.330;2022-09-09T09:54:42;15.40;1.90
3912;DHT22;1971;51.778;10.330;2022-09-09T09:57:23;15.30;1.00
3912;DHT22;1971;51.778;10.330;2022-09-09T10:00:11;15.50;1.00
3912;DHT22;1971;51.778;10.330;2022-09-09T10:02:52;15.50;1.00
3912;DHT22;1971;51.778;10.330;2022-09-09T10:05:36;15.40;7.50
3912;DHT22;1971;51.778;10.330;2022-09-09T10:08:14;15.40;17.00
3912;DHT22;1971;51.778;10.330;2022-09-09T10:11:06;15.50;14.10
3912;DHT22;1971;51.778;10.330;2022-09-09T10:13:56;15.50;8.70
3912;DHT22;1971;51.778;10.330;2022-09-09T10:16:42;15.50;13.80
3912;DHT22;1971;51.778;10.330;2022-09-09T10:19:30;15.50;10.80
3912;DHT22;1971;51.778;10.330;2022-09-09T10:22:16;15.40;1.00
3912;DHT22;1971;51.778;10.330;2022-09-09T10:28:34;15.90;5.00
3912;DHT22;1971;51.778;10.330;2022-09-09T10:31:19;16.50;1.00
3912;DHT22;1971;51.778;10.330;2022-09-09T10:34:10;16.80;1.00
3912;DHT22;1971;51.778;10.330;2022-09-09T10:36:52;17.10;1.00
3912;DHT22;1971;51.778;10.330;2022-09-09T10:39:36;17.20;1.00
3912;DHT22;1971;51.778;10.330;2022-09-09T10:42:17;17.10;1.00
3912;DHT22;1971;51.778;10.330;2022-09-09T10:45:08;16.90;1.00
3912;DHT22;1971;51.778;10.330;2022-09-09T10:48:05;16.90;1.00
3912;DHT22;1971;51.778;10.330;2022-09-09T10:50:54;17.10;1.00
3912;DHT22;1971;51.778;10.330;2022-09-09T10:53:46;16.70;1.00
3912;DHT22;1971;51.778;10.330;2022-09-09T10:56:24;16.70;1.00
3912;DHT22;1971;51.778;10.330;2022-09-09T10:59:04;16.80;1.00
3912;DHT22;1971;51.778;10.330;2022-09-09T11:01:50;16.90;1.00
3912;DHT22;1971;51.778;10.330;2022-09-09T11:04:30;17.00;1.00
3912;DHT22;1971;51.778;10.330;2022-09-09T11:07:14;17.40;1.00
3912;DHT22;1971;51.778;10.330;2022-09-09T11:10:01;17.60;1.00
3912;DHT22;1971;51.778;10.330;2022-09-09T11:12:41;17.90;1.00
3912;DHT22;1971;51.778;10.330;2022-09-09T11:15:29;17.60;1.00
3912;DHT22;1971;51.778;10.330;2022-09-09T11:18:10;17.90;1.00
3912;DHT22;1971;51.778;10.330;2022-09-09T11:20:58;17.80;1.00
3912;DHT22;1971;51.778;10.330;2022-09-09T11:23:39;17.30;1.00
3912;DHT22;1971;51.778;10.330;2022-09-09T11:26:30;16.70;1.00
3912;DHT22;1971;51.778;10.330;2022-09-09T11:29:27;16.50;1.00
3912;DHT22;1971;51.778;10.330;2022-09-09T11:32:32;16.40;1.00
3912;DHT22;1971;51.778;10.330;2022-09-09T11:35:26;16.40;1.00
3912;DHT22;1971;51.778;10.330;2022-09-09T11:41:05;16.10;1.00
3912;DHT22;1971;51.778;10.330;2022-09-09T11:43:48;15.90;1.00
3912;DHT22;1971;51.778;10.330;2022-09-09T11:46:34;15.90;1.00
3912;DHT22;1971;51.778;10.330;2022-09-09T11:49:26;15.80;1.00
3912;DHT22;1971;51.778;10.330;2022-09-09T11:54:55;15.90;1.00
3912;DHT22;1971;51.778;10.330;2022-09-09T11:57:35;15.90;1.00
3912;DHT22;1971;51.778;10.330;2022-09-09T12:00:36;16.10;1.00
3912;DHT22;1971;51.778;10.330;2022-09-09T12:03:32;16.40;1.00
3912;DHT22;1971;51.778;10.330;2022-09-09T12:06:18;16.90;1.00
3912;DHT22;1971;51.778;10.330;2022-09-09T12:08:57;16.90;1.00
3912;DHT22;1971;51.778;10.330;2022-09-09T12:11:39;17.00;1.00
3912;DHT22;1971;51.778;10.330;2022-09-09T12:14:21;17.20;1.00
3912;DHT22;1971;51.778;10.330;2022-09-09T12:17:21;17.00;1.00
3912;DHT22;1971;51.778;10.330;2022-09-09T12:20:09;17.20;1.00
3912;DHT22;1971;51.778;10.330;2022-09-09T12:26:01;17.30;1.00
3912;DHT22;1971;51.778;10.330;2022-09-09T12:28:49;17.20;1.00
3912;DHT22;1971;51.778;10.330;2022-09-09T12:31:31;17.40;1.00
3912;DHT22;1971;51.778;10.330;2022-09-09T12:34:20;17.40;1.00
3912;DHT22;1971;51.778;10.330;2022-09-09T12:37:04;17.60;1.00
3912;DHT22;1971;51.778;10.330;2022-09-09T12:39:52;17.80;1.00
3912;DHT22;1971;51.778;10.330;2022-09-09T12:42:31;17.60;1.00
3912;DHT22;1971;51.778;10.330;2022-09-09T12:45:17;17.40;1.00
3912;DHT22;1971;51.778;10.330;2022-09-09T12:47:56;17.30;1.00
3912;DHT22;1971;51.778;10.330;2022-09-09T12:50:46;17.50;1.00
3912;DHT22;1971;51.778;10.330;2022-09-09T12:53:26;17.70;1.00
3912;DHT22;1971;51.778;10.330;2022-09-09T12:56:18;17.60;1.00
3912;DHT22;1971;51.778;10.330;2022-09-09T12:58:56;17.40;1.00
3912;DHT22;1971;51.778;10.330;2022-09-09T13:01:39;17.40;1.00
3912;DHT22;1971;51.778;10.330;2022-09-09T13:04:20;17.80;1.00
3912;DHT22;1971;51.778;10.330;2022-09-09T13:07:10;18.40;1.00
3912;DHT22;1971;51.778;10.330;2022-09-09T13:09:49;18.40;1.00
3912;DHT22;1971;51.778;10.330;2022-09-09T13:12:26;18.30;1.00
3912;DHT22;1971;51.778;10.330;2022-09-09T13:15:16;18.40;1.00
3912;DHT22;1971;51.778;10.330;2022-09-09T13:17:56;18.20;1.00
3912;DHT22;1971;51.778;10.330;2022-09-09T13:20:46;18.00;1.00
3912;DHT22;1971;51.778;10.330;2022-09-09T13:23:27;18.00;1.00
3912;DHT22;1971;51.778;10.330;2022-09-09T13:26:21;17.90;1.00
3912;DHT22;1971;51.778;10.330;2022-09-09T13:29:13;17.60;1.00
3912;DHT22;1971;51.778;10.330;2022-09-09T13:32:04;17.50;1.00
3912;DHT22;1971;51.778;10.330;2022-09-09T13:34:51;18.00;1.00
3912;DHT22;1971;51.778;10.330;2022-09-09T13:37:27;18.60;1.00
3912;DHT22;1971;51.778;10.330;2022-09-09T13:40:18;18.50;1.00
3912;DHT22;1971;51.778;10.330;2022-09-09T13:42:56;18.50;1.00
3912;DHT22;1971;51.778;10.330;2022-09-09T13:45:39;18.00;1.00
3912;DHT22;1971;51.778;10.330;2022-09-09T13:48:18;17.90;1.00
3912;DHT22;1971;51.778;10.330;2022-09-09T13:51:03;17.60;1.00
3912;DHT22;1971;51.778;10.330;2022-09-09T13:53:39;17.60;1.00
3912;DHT22;1971;51.778;10.330;2022-09-09T13:56:24;17.60;1.00
3912;DHT22;1971;51.778;10.330;2022-09-09T13:59:01;17.70;1.00
3912;DHT22;1971;51.778;10.330;2022-09-09T14:01:38;17.70;1.00
3912;DHT22;1971;51.778;10.330;2022-09-09T14:04:20;17.60;1.00
3912;DHT22;1971;51.778;10.330;2022-09-09T14:06:57;17.60;1.00
3912;DHT22;1971;51.778;10.330;2022-09-09T14:09:39;17.50;1.00
3912;DHT22;1971;51.778;10.330;2022-09-09T14:12:17;17.50;1.00
3912;DHT22;1971;51.778;10.330;2022-09-09T14:15:00;17.60;1.00
3912;DHT22;1971;51.778;10.330;2022-09-09T14:17:36;17.70;1.00
3912;DHT22;1971;51.778;10.330;2022-09-09T14:20:18;17.60;1.00
3912;DHT22;1971;51.778;10.330;2022-09-09T14:22:54;17.50;1.00
3912;DHT22;1971;51.778;10.330;2022-09-09T14:25:39;17.50;1.00
3912;DHT22;1971;51.778;10.330;2022-09-09T14:28:18;17.50;1.00
3912;DHT22;1971;51.778;10.330;2022-09-09T14:31:01;17.20;1.00
3912;DHT22;1971;51.778;10.330;2022-09-09T14:33:39;17.40;1.00
3912;DHT22;1971;51.778;10.330;2022-09-09T14:36:21;17.70;1.00
3912;DHT22;1971;51.778;10.330;2022-09-09T14:38:58;17.70;1.00
3912;DHT22;1971;51.778;10.330;2022-09-09T14:41:41;18.10;1.00
3912;DHT22;1971;51.778;10.330;2022-09-09T14:44:19;18.20;1.00
3912;DHT22;1971;51.778;10.330;2022-09-09T14:47:02;18.30;1.00
3912;DHT22;1971;51.778;10.330;2022-09-09T14:49:39;18.30;1.00
3912;DHT22;1971;51.778;10.330;2022-09-09T14:52:19;18.40;1.00
3912;DHT22;1971;51.778;10.330;2022-09-09T14:55:01;18.40;1.00
3912;DHT22;1971;51.778;10.330;2022-09-09T14:57:37;18.10;1.00
3912;DHT22;1971;51.778;10.330;2022-09-09T15:00:21;17.60;99.90
3912;DHT22;1971;51.778;10.330;2022-09-09T15:02:58;17.00;99.90
3912;DHT22;1971;51.778;10.330;2022-09-09T15:05:40;16.70;1.00
3912;DHT22;1971;51.778;10.330;2022-09-09T15:08:16;16.60;1.00
3912;DHT22;1971;51.778;10.330;2022-09-09T15:10:59;16.60;1.00
3912;DHT22;1971;51.778;10.330;2022-09-09T15:13:36;16.50;1.00
3912;DHT22;1971;51.778;10.330;2022-09-09T15:16:23;16.60;1.00
3912;DHT22;1971;51.778;10.330;2022-09-09T15:19:01;17.20;1.00
3912;DHT22;1971;51.778;10.330;2022-09-09T15:21:43;17.60;99.90
3912;DHT22;1971;51.778;10.330;2022-09-09T15:24:19;17.90;1.00
3912;DHT22;1971;51.778;10.330;2022-09-09T15:26:56;18.10;1.00
3912;DHT22;1971;51.778;10.330;2022-09-09T15:29:38;18.10;99.90
3912;DHT22;1971;51.778;10.330;2022-09-09T15:32:17;18.00;99.90
3912;DHT22;1971;51.778;10.330;2022-09-09T15:35:00;18.10;99.90
3912;DHT22;1971;51.778;10.330;2022-09-09T15:37:36;18.20;99.90
3912;DHT22;1971;51.778;10.330;2022-09-09T15:40:18;18.20;99.90
3912;DHT22;1971;51.778;10.330;2022-09-09T15:42:54;18.30;99.90
3912;DHT22;1971;51.778;10.330;2022-09-09T15:45:36;18.40;99.90
3912;DHT22;1971;51.778;10.330;2022-09-09T15:48:15;18.00;99.90
3912;DHT22;1971;51.778;10.330;2022-09-09T15:51:01;17.60;99.90
3912;DHT22;1971;51.778;10.330;2022-09-09T15:53:54;17.80;99.90
3912;DHT22;1971;51.778;10.330;2022-09-09T15:56:37;18.20;99.90
3912;DHT22;1971;51.778;10.330;2022-09-09T15:59:14;18.40;99.90
3912;DHT22;1971;51.778;10.330;2022-09-09T16:01:56;18.00;99.90
3912;DHT22;1971;51.778;10.330;2022-09-09T16:04:35;18.10;99.90
3912;DHT22;1971;51.778;10.330;2022-09-09T16:07:12;17.90;99.90
3912;DHT22;1971;51.778;10.330;2022-09-09T16:09:54;17.50;99.90
3912;DHT22;1971;51.778;10.330;2022-09-09T16:12:30;17.20;99.90
3912;DHT22;1971;51.778;10.330;2022-09-09T16:15:12;16.90;99.90
3912;DHT22;1971;51.778;10.330;2022-09-09T16:17:48;16.90;99.90
3912;DHT22;1971;51.778;10.330;2022-09-09T16:20:32;16.80;99.90
3912;DHT22;1971;51.778;10.330;2022-09-09T16:23:09;16.70;99.90
3912;DHT22;1971;51.778;10.330;2022-09-09T16:25:53;16.90;1.00
3912;DHT22;1971;51.778;10.330;2022-09-09T16:28:33;17.40;99.90
3912;DHT22;1971;51.778;10.330;2022-09-09T16:31:17;17.90;99.90
3912;DHT22;1971;51.778;10.330;2022-09-09T16:33:54;18.30;99.90
3912;DHT22;1971;51.778;10.330;2022-09-09T16:36:40;18.40;99.90
3912;DHT22;1971;51.778;10.330;2022-09-09T16:39:19;18.30;99.90
3912;DHT22;1971;51.778;10.330;2022-09-09T16:41:56;17.70;99.90
3912;DHT22;1971;51.778;10.330;2022-09-09T16:44:39;17.40;99.90
3912;DHT22;1971;51.778;10.330;2022-09-09T16:47:15;17.10;99.90
3912;DHT22;1971;51.778;10.330;2022-09-09T16:49:57;16.90;99.90
3912;DHT22;1971;51.778;10.330;2022-09-09T16:52:36;16.90;99.90
3912;DHT22;1971;51.778;10.330;2022-09-09T16:55:19;16.80;99.90
3912;DHT22;1971;51.778;10.330;2022-09-09T16:57:57;16.70;99.90
3912;DHT22;1971;51.778;10.330;2022-09-09T17:00:39;16.60;99.90
3912;DHT22;1971;51.778;10.330;2022-09-09T17:03:15;16.60;99.90
3912;DHT22;1971;51.778;10.330;2022-09-09T17:05:57;16.50;99.90
3912;DHT22;1971;51.778;10.330;2022-09-09T17:08:37;16.30;99.90
3912;DHT22;1971;51.778;10.330;2022-09-09T17:11:20;16.20;1.00
3912;DHT22;1971;51.778;10.330;2022-09-09T17:13:57;16.10;1.00
3912;DHT22;1971;51.778;10.330;2022-09-09T17:16:40;15.90;1.00
3912;DHT22;1971;51.778;10.330;2022-09-09T17:19:17;15.80;1.00
3912;DHT22;1971;51.778;10.330;2022-09-09T17:21:54;15.70;1.00
3912;DHT22;1971;51.778;10.330;2022-09-09T17:24:38;15.70;1.00
3912;DHT22;1971;51.778;10.330;2022-09-09T17:27:15;15.50;1.00
3912;DHT22;1971;51.778;10.330;2022-09-09T17:29:57;15.50;1.00
3912;DHT22;1971;51.778;10.330;2022-09-09T17:32:33;15.40;1.00
3912;DHT22;1971;51.778;10.330;2022-09-09T17:35:15;15.20;1.00
3912;DHT22;1971;51.778;10.330;2022-09-09T17:37:52;15.10;1.00
3912;DHT22;1971;51.778;10.330;2022-09-09T17:40:37;15.00;1.00
3912;DHT22;1971;51.778;10.330;2022-09-09T17:43:14;14.90;1.00